X  CloseMetar Aviation Weather Data     YMAV Avalon Airport

Temperature

12°C Temperature

5°C Dewpoint

63% Humidity



Wind

32 KM/H

20 MPH

 9 M/S

17 KTS



310°
North West
Current Conditions

Clear Clear
Pressure 1010.92 (hPa) - 29.85 (in)
Visibility 6.2 (mi) - 10 (km)
Airport
Airport-code YMAV

Location Avalon Airport 14 (km)

Metar:
YMAV 172200Z AUTO 31017KT 9999 // NCD 12/05 Q1011

Time: 18-09-2021 08:00